Time;durP1;ratioP1;P1;durP2;ratioP2;P2;SDS_P1;SDS_P2;PMS_P1;PMS_P2;Temp;Humidity;BMP_temperature;BMP_pressure;BME280_temperature;BME280_humidity;BME280_pressure;Samples;Min_cycle;Max_cycle;Signal;HPM_P1;HPM_P2
2023/11/03 00:00:39;;;;;;;4.97;1.10;;;;;;;10.94;74.23;97519.47;7396188;19;20371;-77
2023/11/03 00:03:06;;;;;;;5.22;1.20;;;;;;;10.90;74.50;97510.44;7393412;19;20380;-77
2023/11/03 00:05:35;;;;;;;3.38;1.00;;;;;;;10.85;74.76;97516.50;7396399;19;20381;-76
2023/11/03 00:08:03;;;;;;;4.10;1.20;;;;;;;10.79;74.93;97517.50;7396350;19;20363;-77
2023/11/03 00:10:31;;;;;;;3.92;0.95;;;;;;;10.74;74.87;97526.22;7391966;19;20366;-77
2023/11/03 00:12:59;;;;;;;3.53;0.90;;;;;;;10.72;75.27;97530.19;7396139;19;20415;-77
2023/11/03 00:15:26;;;;;;;5.55;1.20;;;;;;;10.68;75.19;97539.72;7397278;19;20928;-76
2023/11/03 00:17:53;;;;;;;5.78;1.25;;;;;;;10.61;75.55;97543.38;7394517;19;20389;-77
2023/11/03 00:20:20;;;;;;;6.35;1.85;;;;;;;10.57;75.56;97546.78;7393907;19;20384;-77
2023/11/03 00:22:48;;;;;;;4.05;1.20;;;;;;;10.52;75.90;97550.19;7394385;19;20437;-76
2023/11/03 00:25:16;;;;;;;5.65;1.30;;;;;;;10.46;75.86;97558.34;7390063;19;20357;-77
2023/11/03 00:27:46;;;;;;;4.22;1.10;;;;;;;10.39;76.04;97564.66;7392998;19;20418;-77
2023/11/03 00:30:14;;;;;;;6.03;1.20;;;;;;;10.31;76.38;97559.00;7394288;19;20922;-77
2023/11/03 00:32:41;;;;;;;5.25;1.48;;;;;;;10.25;76.85;97567.91;7391529;19;20440;-77
2023/11/03 00:35:09;;;;;;;4.35;1.30;;;;;;;10.20;76.61;97558.88;7388777;19;20369;-77
2023/11/03 00:37:38;;;;;;;4.40;1.30;;;;;;;10.12;76.86;97561.94;7389322;19;20693;-77
2023/11/03 00:40:08;;;;;;;5.70;1.65;;;;;;;10.06;77.30;97568.25;7389050;19;20442;-77
2023/11/03 00:42:35;;;;;;;4.37;1.37;;;;;;;10.01;77.41;97568.19;7388961;19;20407;-78
2023/11/03 00:45:02;;;;;;;5.03;1.50;;;;;;;9.96;77.46;97568.13;7388413;19;20368;-76
2023/11/03 00:47:29;;;;;;;5.55;1.42;;;;;;;9.92;77.27;97569.66;7389999;19;20681;-76
2023/11/03 00:49:56;;;;;;;5.13;1.40;;;;;;;9.88;77.50;97571.19;7391301;19;20857;-77
2023/11/03 00:52:25;;;;;;;4.72;1.30;;;;;;;9.82;77.56;97572.19;7393359;19;20720;-77
2023/11/03 00:54:53;;;;;;;4.65;1.40;;;;;;;9.78;77.72;97566.59;7394357;19;20387;-77
2023/11/03 00:57:20;;;;;;;5.80;1.30;;;;;;;9.73;77.73;97570.00;7397149;19;20369;-76
2023/11/03 00:59:49;;;;;;;4.35;1.30;;;;;;;9.70;77.74;97567.03;7388479;19;20402;-76
2023/11/03 01:02:17;;;;;;;6.10;1.63;;;;;;;9.64;78.05;97565.38;7389104;19;20389;-77
2023/11/03 01:04:45;;;;;;;5.93;1.30;;;;;;;9.58;78.37;97557.38;7393455;19;20744;-77
2023/11/03 01:07:12;;;;;;;5.63;1.25;;;;;;;9.51;78.64;97546.16;7389772;19;20353;-77
2023/11/03 01:09:41;;;;;;;4.85;1.17;;;;;;;9.47;78.99;97536.31;7392895;19;20386;-77
2023/11/03 01:12:08;;;;;;;4.63;1.20;;;;;;;9.44;79.05;97536.81;7395715;19;21065;-77
2023/11/03 01:14:35;;;;;;;4.10;1.20;;;;;;;9.44;79.02;97528.88;7395220;19;20332;-76
2023/11/03 01:17:02;;;;;;;9.00;1.63;;;;;;;9.45;79.07;97531.25;7395445;19;20361;-76
2023/11/03 01:19:30;;;;;;;5.00;1.17;;;;;;;9.46;78.43;97526.78;7393165;19;20724;-76
2023/11/03 01:21:59;;;;;;;6.18;1.30;;;;;;;9.51;78.64;97521.53;7389985;19;20386;-76
2023/11/03 01:24:27;;;;;;;4.80;1.15;;;;;;;9.56;78.56;97521.59;7388314;19;20936;-77
2023/11/03 01:26:54;;;;;;;4.47;1.05;;;;;;;9.59;78.01;97521.91;7394625;19;21143;-76
2023/11/03 01:29:21;;;;;;;4.40;1.20;;;;;;;9.61;77.91;97505.00;7387378;19;20414;-76
2023/11/03 01:31:48;;;;;;;3.22;1.10;;;;;;;9.69;77.33;97512.47;7391590;19;20402;-76
2023/11/03 01:34:15;;;;;;;4.22;1.25;;;;;;;9.73;76.63;97509.13;7391640;19;20369;-76
2023/11/03 01:36:43;;;;;;;2.90;1.00;;;;;;;9.79;76.28;97508.09;7391323;19;20694;-76
2023/11/03 01:39:10;;;;;;;4.93;1.30;;;;;;;9.85;76.35;97516.09;7392611;19;20373;-76
2023/11/03 01:41:37;;;;;;;3.45;0.90;;;;;;;9.84;76.04;97525.09;7390064;19;20484;-76
2023/11/03 01:44:06;;;;;;;4.30;1.08;;;;;;;9.84;75.90;97522.44;7390147;19;20714;-77
2023/11/03 01:46:37;;;;;;;5.03;1.10;;;;;;;9.85;75.70;97519.56;7392636;19;20755;-76
2023/11/03 01:49:11;;;;;;;4.13;1.20;;;;;;;9.81;75.71;97523.75;7390493;19;20360;-76
2023/11/03 01:51:39;;;;;;;4.18;1.40;;;;;;;9.82;75.43;97532.47;7389667;19;20411;-76
2023/11/03 01:54:07;;;;;;;3.65;1.25;;;;;;;9.77;75.53;97534.00;7391121;19;20392;-76
2023/11/03 01:56:35;;;;;;;4.20;1.10;;;;;;;9.76;75.03;97542.22;7391362;19;20364;-76
2023/11/03 01:59:08;;;;;;;4.85;1.13;;;;;;;9.72;75.04;97535.81;7390199;19;20389;-77
2023/11/03 02:01:36;;;;;;;5.68;1.55;;;;;;;9.73;74.96;97548.00;7387713;19;20404;-77
2023/11/03 02:04:04;;;;;;;4.20;1.20;;;;;;;9.69;75.06;97550.34;7389937;19;20931;-76
2023/11/03 02:06:31;;;;;;;6.00;1.60;;;;;;;9.69;74.86;97552.19;7389426;19;20424;-76
2023/11/03 02:08:59;;;;;;;6.80;1.40;;;;;;;9.68;74.90;97555.88;7389122;19;20364;-76
2023/11/03 02:11:28;;;;;;;6.75;1.75;;;;;;;9.66;75.08;97547.38;7390704;19;20952;-76
2023/11/03 02:13:55;;;;;;;9.40;1.40;;;;;;;9.64;74.77;97552.91;7393933;19;20385;-77
2023/11/03 02:16:23;;;;;;;5.20;1.45;;;;;;;9.62;75.05;97562.94;7389863;19;20369;-76
2023/11/03 02:18:50;;;;;;;5.25;1.02;;;;;;;9.55;74.72;97567.63;7390180;19;20389;-76
2023/11/03 02:21:18;;;;;;;5.72;1.15;;;;;;;9.58;74.86;97575.06;7391233;19;20369;-76
2023/11/03 02:23:45;;;;;;;6.90;1.50;;;;;;;9.58;74.64;97583.00;7388069;19;20708;-76
2023/11/03 02:26:12;;;;;;;6.22;1.58;;;;;;;9.56;74.54;97583.28;7389354;19;20361;-76
2023/11/03 02:28:39;;;;;;;5.53;1.40;;;;;;;9.57;74.53;97581.41;7391787;19;20424;-76
2023/11/03 02:31:06;;;;;;;6.75;1.60;;;;;;;9.58;74.53;97577.72;7392906;19;20336;-76
2023/11/03 02:33:33;;;;;;;4.60;1.42;;;;;;;9.57;74.48;97581.41;7389921;19;20357;-76
2023/11/03 02:36:00;;;;;;;4.43;1.38;;;;;;;9.54;74.39;97566.03;7387560;19;20376;-76
2023/11/03 02:38:27;;;;;;;7.35;1.67;;;;;;;9.54;74.46;97566.84;7391662;19;20404;-77
2023/11/03 02:40:55;;;;;;;7.50;1.65;;;;;;;9.55;74.17;97568.44;7389985;19;20399;-76
2023/11/03 02:43:22;;;;;;;6.95;1.30;;;;;;;9.50;74.17;97565.72;7387757;19;20867;-76
2023/11/03 02:45:49;;;;;;;7.90;1.55;;;;;;;9.52;74.30;97568.09;7389084;19;20374;-76
2023/11/03 02:48:17;;;;;;;5.57;1.33;;;;;;;9.50;74.46;97560.44;7390281;19;20348;-76
2023/11/03 02:50:44;;;;;;;8.40;1.80;;;;;;;9.46;74.57;97563.81;7391050;19;20365;-77
2023/11/03 02:53:11;;;;;;;6.38;1.77;;;;;;;9.46;74.74;97566.47;7388583;19;20444;-76
2023/11/03 02:55:38;;;;;;;6.22;1.35;;;;;;;9.42;74.99;97568.00;7388794;19;20370;-76
2023/11/03 02:58:06;;;;;;;6.60;1.65;;;;;;;9.43;74.92;97566.94;7390702;19;20385;-76
2023/11/03 03:00:36;;;;;;;8.27;1.80;;;;;;;9.39;75.02;97574.56;7386374;19;20380;-76
2023/11/03 03:03:05;;;;;;;7.03;1.50;;;;;;;9.40;75.29;97570.88;7390758;19;20360;-76
2023/11/03 03:05:33;;;;;;;5.88;1.50;;;;;;;9.36;75.61;97575.84;7391137;19;20369;-77
2023/11/03 03:08:00;;;;;;;6.30;1.70;;;;;;;9.35;75.50;97579.56;7395274;19;20762;-76
2023/11/03 03:10:27;;;;;;;6.50;1.90;;;;;;;9.38;75.69;97580.91;7396969;19;20745;-77
2023/11/03 03:12:54;;;;;;;6.32;1.80;;;;;;;9.37;75.51;97590.69;7394679;19;20368;-77
2023/11/03 03:15:21;;;;;;;8.27;2.00;;;;;;;9.38;75.62;97584.34;7397119;19;20344;-76
2023/11/03 03:17:47;;;;;;;9.32;1.50;;;;;;;9.38;75.90;97573.75;7390502;19;20453;-76
2023/11/03 03:20:15;;;;;;;6.80;1.40;;;;;;;9.34;75.67;97572.66;7392787;19;20381;-77
2023/11/03 03:22:42;;;;;;;7.40;1.70;;;;;;;9.38;75.78;97567.69;7393455;19;20393;-77
2023/11/03 03:25:09;;;;;;;4.73;1.40;;;;;;;9.37;75.68;97551.00;7395843;19;20376;-76
2023/11/03 03:27:36;;;;;;;4.07;1.20;;;;;;;9.36;75.81;97562.63;7395472;19;20357;-77
2023/11/03 03:30:04;;;;;;;7.22;1.60;;;;;;;9.35;75.79;97550.44;7394644;19;20391;-76
2023/11/03 03:32:30;;;;;;;6.70;1.70;;;;;;;9.37;75.66;97544.91;7395390;19;20381;-77
2023/11/03 03:34:58;;;;;;;5.70;1.50;;;;;;;9.34;75.73;97551.47;7391681;19;20391;-77
2023/11/03 03:37:25;;;;;;;5.00;1.38;;;;;;;9.36;75.79;97557.34;7389101;19;20386;-76
2023/11/03 03:39:51;;;;;;;9.70;1.83;;;;;;;9.36;75.65;97545.97;7392176;19;21002;-77
2023/11/03 03:42:21;;;;;;;6.63;1.83;;;;;;;9.33;75.65;97536.66;7395252;19;20706;-76
2023/11/03 03:44:48;;;;;;;6.03;1.48;;;;;;;9.32;75.69;97531.63;7393258;19;20422;-77
2023/11/03 03:47:15;;;;;;;6.57;1.60;;;;;;;9.33;75.43;97520.78;7393492;19;20375;-76
2023/11/03 03:49:42;;;;;;;6.70;1.40;;;;;;;9.34;75.59;97525.03;7396484;19;20373;-77
2023/11/03 03:52:09;;;;;;;6.70;1.60;;;;;;;9.29;75.44;97514.41;7395042;19;20364;-76
2023/11/03 03:54:35;;;;;;;6.23;1.63;;;;;;;9.33;75.24;97512.88;7398071;19;20360;-76
2023/11/03 03:57:03;;;;;;;5.72;1.40;;;;;;;9.36;75.16;97516.84;7394435;19;20375;-76
2023/11/03 03:59:29;;;;;;;6.68;1.60;;;;;;;9.35;75.22;97518.72;7395651;19;20356;-76
2023/11/03 04:01:56;;;;;;;4.57;1.50;;;;;;;9.31;75.13;97530.81;7394481;19;20352;-76
2023/11/03 04:04:25;;;;;;;7.78;1.60;;;;;;;9.34;75.23;97514.44;7391408;19;20436;-77
2023/11/03 04:06:52;;;;;;;5.60;1.75;;;;;;;9.35;75.22;97526.66;7395752;19;20431;-76
2023/11/03 04:09:19;;;;;;;6.33;1.40;;;;;;;9.34;75.41;97525.03;7394234;19;20401;-77
2023/11/03 04:11:46;;;;;;;7.00;1.40;;;;;;;9.30;75.65;97528.41;7395189;19;20371;-76
2023/11/03 04:14:13;;;;;;;8.05;2.05;;;;;;;9.30;75.46;97520.47;7392764;19;20368;-76
2023/11/03 04:16:39;;;;;;;7.20;1.70;;;;;;;9.28;75.66;97544.53;7391633;19;20340;-76
2023/11/03 04:19:06;;;;;;;5.65;1.42;;;;;;;9.27;75.78;97535.00;7395449;19;20429;-77
2023/11/03 04:21:33;;;;;;;7.47;1.65;;;;;;;9.24;76.00;97542.59;7393826;19;20421;-76
2023/11/03 04:24:00;;;;;;;7.30;1.60;;;;;;;9.25;76.06;97557.44;7393976;19;20373;-77
2023/11/03 04:26:27;;;;;;;4.63;1.40;;;;;;;9.22;76.32;97563.22;7392501;19;20336;-76
2023/11/03 04:28:53;;;;;;;8.88;2.30;;;;;;;9.18;76.47;97563.72;7397015;19;20401;-77
2023/11/03 04:31:21;;;;;;;6.80;1.98;;;;;;;9.17;76.63;97556.00;7398134;19;20356;-77
2023/11/03 04:33:49;;;;;;;6.18;1.70;;;;;;;9.12;76.36;97558.59;7381576;19;20403;-77
2023/11/03 04:36:16;;;;;;;6.80;1.60;;;;;;;9.08;76.59;97560.13;7392712;19;20480;-76
2023/11/03 04:38:43;;;;;;;7.30;1.30;;;;;;;9.04;76.75;97562.44;7396490;19;20373;-77
2023/11/03 04:41:10;;;;;;;6.20;1.70;;;;;;;9.01;77.29;97562.09;7395792;19;20373;-76
2023/11/03 04:43:38;;;;;;;5.40;1.80;;;;;;;8.97;77.24;97570.53;7392942;19;20426;-76
2023/11/03 04:46:08;;;;;;;6.00;1.70;;;;;;;8.93;77.08;97565.97;7390680;19;20597;-76
2023/11/03 04:48:37;;;;;;;5.45;1.40;;;;;;;8.89;77.56;97576.22;7392277;19;20425;-76
2023/11/03 04:51:04;;;;;;;6.60;1.52;;;;;;;8.81;77.88;97573.97;7394026;19;20390;-76
2023/11/03 04:53:31;;;;;;;4.00;1.40;;;;;;;8.82;77.79;97578.22;7389697;19;21009;-77
2023/11/03 04:55:58;;;;;;;7.17;1.40;;;;;;;8.79;78.04;97581.34;7392722;19;20384;-77
2023/11/03 04:58:27;;;;;;;7.00;1.50;;;;;;;8.77;78.10;97588.72;7393222;19;20397;-78
2023/11/03 05:00:54;;;;;;;5.22;1.48;;;;;;;8.75;78.43;97580.22;7392662;19;20339;-76
2023/11/03 05:03:21;;;;;;;6.50;1.60;;;;;;;8.74;78.29;97586.56;7392239;19;20893;-76
2023/11/03 05:05:48;;;;;;;6.15;1.45;;;;;;;8.74;78.65;97586.56;7394077;19;20381;-76
2023/11/03 05:08:15;;;;;;;7.68;1.58;;;;;;;8.71;78.68;97582.56;7391404;19;20360;-77
2023/11/03 05:10:42;;;;;;;6.13;1.40;;;;;;;8.73;78.73;97583.13;7388391;19;20817;-76
2023/11/03 05:13:09;;;;;;;5.03;1.42;;;;;;;8.74;78.66;97586.56;7386814;19;20373;-76
2023/11/03 05:15:36;;;;;;;10.35;1.98;;;;;;;8.75;78.72;97585.50;7393547;19;20385;-77
2023/11/03 05:18:02;;;;;;;8.68;1.50;;;;;;;8.76;78.68;97585.28;7388640;19;20386;-77
2023/11/03 05:20:29;;;;;;;5.30;1.35;;;;;;;8.75;79.00;97585.50;7391705;19;20398;-78
2023/11/03 05:22:56;;;;;;;5.13;1.10;;;;;;;8.74;79.07;97583.91;7392991;19;20357;-77
2023/11/03 05:25:23;;;;;;;6.32;1.40;;;;;;;8.75;79.07;97575.72;7388860;19;21403;-76
2023/11/03 05:27:50;;;;;;;5.75;1.70;;;;;;;8.74;78.92;97573.34;7389655;19;20510;-77
2023/11/03 05:30:17;;;;;;;5.87;1.53;;;;;;;8.71;78.93;97569.34;7388001;19;20369;-77
2023/11/03 05:32:44;;;;;;;8.93;1.90;;;;;;;8.69;79.37;97570.59;7391916;19;20404;-77
2023/11/03 05:35:11;;;;;;;6.05;1.30;;;;;;;8.67;79.51;97576.16;7391743;19;20364;-77
2023/11/03 05:37:38;;;;;;;9.07;1.60;;;;;;;8.69;79.31;97566.13;7393861;19;20393;-76
2023/11/03 05:40:05;;;;;;;6.80;1.40;;;;;;;8.72;79.55;97564.84;7392626;19;20360;-77
2023/11/03 05:42:32;;;;;;;4.90;1.55;;;;;;;8.74;79.21;97571.50;7393420;19;20912;-78
2023/11/03 05:44:59;;;;;;;5.47;1.10;;;;;;;8.73;79.45;97567.25;7389811;19;20815;-76
2023/11/03 05:47:30;;;;;;;5.25;1.30;;;;;;;8.76;79.31;97572.06;7389219;19;20628;-76
2023/11/03 05:49:57;;;;;;;3.70;1.20;;;;;;;8.78;79.21;97569.97;7389839;19;20367;-77
2023/11/03 05:52:24;;;;;;;4.35;1.08;;;;;;;8.86;79.19;97584.66;7391237;19;20348;-76
2023/11/03 05:54:52;;;;;;;4.53;1.25;;;;;;;8.92;78.77;97585.50;7392084;19;20826;-77
2023/11/03 05:57:19;;;;;;;5.55;1.55;;;;;;;8.94;78.70;97584.22;7391266;19;20792;-77
2023/11/03 05:59:46;;;;;;;5.43;1.10;;;;;;;8.98;78.52;97588.00;7392714;19;20431;-76
2023/11/03 06:02:12;;;;;;;5.32;1.58;;;;;;;9.05;78.31;97590.47;7390859;19;20357;-76
2023/11/03 06:04:39;;;;;;;4.93;1.20;;;;;;;9.07;78.03;97574.38;7390068;19;20398;-76
2023/11/03 06:07:06;;;;;;;6.25;1.52;;;;;;;9.11;77.89;97586.06;7386669;19;20394;-77
2023/11/03 06:09:34;;;;;;;4.63;1.20;;;;;;;9.18;77.70;97584.88;7392504;19;20340;-77
2023/11/03 06:12:02;;;;;;;5.70;1.20;;;;;;;9.20;77.69;97600.47;7387471;19;20928;-76
2023/11/03 06:14:29;;;;;;;4.93;1.17;;;;;;;9.23;77.45;97599.22;7390477;19;20382;-77
2023/11/03 06:16:56;;;;;;;4.80;1.30;;;;;;;9.25;77.58;97600.56;7393510;19;20875;-77
2023/11/03 06:19:23;;;;;;;7.03;1.38;;;;;;;9.27;77.49;97609.06;7389506;19;20399;-76
2023/11/03 06:21:50;;;;;;;5.07;1.00;;;;;;;9.28;77.54;97605.34;7392458;19;20390;-77
2023/11/03 06:24:17;;;;;;;5.10;1.40;;;;;;;9.31;77.38;97607.53;7388915;19;20390;-76
2023/11/03 06:26:44;;;;;;;5.55;1.30;;;;;;;9.34;77.48;97619.47;7392903;19;20341;-77
2023/11/03 06:29:11;;;;;;;4.82;1.65;;;;;;;9.40;77.42;97621.16;7390977;19;20658;-77
2023/11/03 06:31:37;;;;;;;4.47;1.40;;;;;;;9.45;77.23;97625.69;7390889;19;20376;-76
2023/11/03 06:34:04;;;;;;;5.70;1.40;;;;;;;9.50;76.92;97617.81;7389245;19;20871;-76
2023/11/03 06:36:31;;;;;;;6.13;1.20;;;;;;;9.54;76.69;97618.94;7391381;19;20368;-77
2023/11/03 06:39:15;;;;;;;4.88;1.10;;;;;;;9.59;76.22;97627.75;7388484;19;20415;-77
2023/11/03 06:41:43;;;;;;;5.43;1.30;;;;;;;9.66;76.02;97627.59;7395129;19;20787;-76
2023/11/03 06:44:11;;;;;;;5.07;1.50;;;;;;;9.74;75.92;97632.47;7390217;19;20516;-76
2023/11/03 06:46:39;;;;;;;4.97;1.20;;;;;;;9.80;75.58;97628.84;7387827;19;20817;-76
2023/11/03 06:49:06;;;;;;;5.03;1.10;;;;;;;9.91;75.31;97624.47;7385400;19;20378;-76
2023/11/03 06:51:33;;;;;;;4.57;1.20;;;;;;;9.97;75.30;97623.50;7389300;19;20396;-77
2023/11/03 06:54:01;;;;;;;5.03;1.08;;;;;;;9.99;74.94;97620.59;7390493;19;21002;-75
2023/11/03 06:56:28;;;;;;;3.95;1.50;;;;;;;10.04;74.55;97625.94;7391690;19;20344;-75
2023/11/03 06:58:55;;;;;;;3.58;1.15;;;;;;;10.10;74.87;97627.63;7391754;19;20699;-74
2023/11/03 07:01:23;;;;;;;4.93;1.23;;;;;;;10.10;74.51;97622.31;7388779;19;20365;-75
2023/11/03 07:03:51;;;;;;;4.07;1.15;;;;;;;10.12;74.45;97622.88;7388280;19;20373;-74
2023/11/03 07:06:20;;;;;;;8.00;1.50;;;;;;;10.23;74.61;97625.63;7388871;19;20401;-75
2023/11/03 07:08:47;;;;;;;3.50;1.00;;;;;;;10.23;74.00;97621.13;7386116;19;20915;-74
2023/11/03 07:11:15;;;;;;;3.80;1.20;;;;;;;10.26;73.88;97615.31;7392342;19;20397;-75
2023/11/03 07:13:43;;;;;;;4.28;1.33;;;;;;;10.28;74.15;97615.88;7390419;19;20374;-74
2023/11/03 07:16:12;;;;;;;4.32;1.20;;;;;;;10.27;73.70;97621.44;7390349;19;20473;-74
2023/11/03 07:18:43;;;;;;;4.90;1.40;;;;;;;10.32;73.48;97634.78;7390684;19;20368;-74
2023/11/03 07:21:15;;;;;;;4.87;1.30;;;;;;;10.37;73.68;97634.81;7384569;19;20382;-75
2023/11/03 07:23:42;;;;;;;5.38;1.30;;;;;;;10.38;73.33;97631.13;7390727;19;20442;-77
2023/11/03 07:26:13;;;;;;;5.50;1.38;;;;;;;10.46;73.52;97636.00;7394002;19;20353;-77
2023/11/03 07:28:44;;;;;;;5.50;1.08;;;;;;;10.51;73.35;97638.69;7391187;19;20359;-78
2023/11/03 07:31:11;;;;;;;3.85;1.05;;;;;;;10.52;72.89;97648.25;7391965;19;20356;-77
2023/11/03 07:33:41;;;;;;;4.32;1.30;;;;;;;10.59;72.71;97656.78;7391165;19;20415;-77
2023/11/03 07:36:12;;;;;;;5.72;1.38;;;;;;;10.69;72.90;97655.28;7392222;19;20373;-77
2023/11/03 07:38:39;;;;;;;3.75;1.20;;;;;;;10.75;73.17;97670.19;7389164;19;20491;-77
2023/11/03 07:41:08;;;;;;;4.57;1.20;;;;;;;10.76;73.14;97663.84;7391067;19;20364;-77
2023/11/03 07:43:39;;;;;;;5.40;1.23;;;;;;;10.79;72.79;97666.78;7392859;19;20700;-75
2023/11/03 07:46:06;;;;;;;3.40;1.00;;;;;;;10.83;72.63;97685.66;7387356;19;20359;-80
2023/11/03 07:48:33;;;;;;;4.70;1.20;;;;;;;10.84;72.63;97692.56;7376231;19;20500;-79
2023/11/03 07:51:01;;;;;;;4.30;1.08;;;;;;;10.92;72.62;97699.25;7378617;19;21212;-78
2023/11/03 07:53:28;;;;;;;4.30;1.08;;;;;;;10.94;72.50;97711.22;7389081;19;20868;-79
2023/11/03 07:55:56;;;;;;;3.80;1.00;;;;;;;10.95;72.78;97712.84;7391928;19;20364;-79
2023/11/03 07:58:23;;;;;;;4.07;1.20;;;;;;;10.98;72.54;97708.88;7394427;19;20364;-80
2023/11/03 08:00:50;;;;;;;5.00;1.52;;;;;;;10.97;72.41;97704.63;7391561;19;20903;-81
2023/11/03 08:03:17;;;;;;;6.07;1.38;;;;;;;10.97;72.04;97700.13;7399599;19;20341;-81
2023/11/03 08:05:45;;;;;;;4.15;0.95;;;;;;;11.02;72.04;97710.78;7398502;19;20361;-81
2023/11/03 08:08:14;;;;;;;4.32;1.20;;;;;;;11.06;72.14;97712.94;7403404;19;20365;-81
2023/11/03 08:10:41;;;;;;;3.70;1.13;;;;;;;11.07;71.36;97709.22;7401597;19;20909;-81
2023/11/03 08:13:08;;;;;;;3.65;1.02;;;;;;;11.11;71.22;97705.00;7403113;19;20376;-80
2023/11/03 08:15:36;;;;;;;3.57;0.90;;;;;;;11.20;70.97;97703.53;7400398;19;21913;-80
2023/11/03 08:18:05;;;;;;;4.45;1.02;;;;;;;11.22;70.44;97701.41;7400016;19;20885;-81
2023/11/03 08:20:33;;;;;;;3.92;1.00;;;;;;;11.32;70.44;97695.38;7401166;19;20386;-80
2023/11/03 08:23:00;;;;;;;4.20;1.20;;;;;;;11.32;69.73;97706.78;7398838;19;20357;-82
2023/11/03 08:25:28;;;;;;;5.65;1.40;;;;;;;11.39;70.01;97710.03;7403213;19;20663;-79
2023/11/03 08:27:55;;;;;;;5.33;1.23;;;;;;;11.41;69.48;97726.53;7400732;19;20337;-80
2023/11/03 08:30:22;;;;;;;5.45;1.65;;;;;;;11.53;69.67;97720.22;7400871;19;20395;-80
2023/11/03 08:32:50;;;;;;;6.40;1.23;;;;;;;11.56;68.96;97719.69;7404120;19;20364;-80
2023/11/03 08:35:21;;;;;;;4.95;1.27;;;;;;;11.68;69.04;97720.34;7396955;19;20360;-80
2023/11/03 08:37:53;;;;;;;4.20;1.23;;;;;;;11.73;68.44;97717.72;7398523;19;20377;-82
2023/11/03 08:40:21;;;;;;;4.95;1.50;;;;;;;11.86;68.79;97721.78;7401708;19;20345;-81
2023/11/03 08:42:49;;;;;;;3.75;1.00;;;;;;;11.93;68.17;97726.91;7398263;19;20356;-81
2023/11/03 08:45:18;;;;;;;4.15;1.30;;;;;;;12.01;68.39;97726.44;7398094;19;20357;-81
2023/11/03 08:47:45;;;;;;;6.63;1.53;;;;;;;12.08;68.13;97737.63;7400539;19;20376;-80
2023/11/03 08:50:14;;;;;;;6.25;1.30;;;;;;;12.03;66.73;97742.91;7399470;19;20440;-80
2023/11/03 08:52:44;;;;;;;5.40;1.20;;;;;;;12.12;67.03;97738.72;7397215;19;20345;-81
2023/11/03 08:55:13;;;;;;;4.97;1.08;;;;;;;12.20;66.55;97740.88;7394012;19;21025;-81
2023/11/03 08:57:41;;;;;;;5.75;1.63;;;;;;;12.29;66.30;97737.72;7398630;19;20352;-81
2023/11/03 09:00:15;;;;;;;5.32;1.13;;;;;;;12.30;65.71;97750.75;7398664;19;20355;-81
2023/11/03 09:02:48;;;;;;;6.70;1.35;;;;;;;12.38;65.80;97741.50;7396234;19;20868;-80
2023/11/03 09:05:16;;;;;;;6.15;1.45;;;;;;;12.39;64.90;97740.44;7399536;19;20946;-81
2023/11/03 09:07:47;;;;;;;5.13;1.20;;;;;;;12.49;65.57;97737.81;7399641;19;20372;-80
2023/11/03 09:10:15;;;;;;;3.40;1.10;;;;;;;12.61;65.25;97746.38;7399287;19;20336;-80
2023/11/03 09:12:42;;;;;;;6.82;1.40;;;;;;;12.65;64.52;97736.81;7399684;19;20344;-81
2023/11/03 09:15:10;;;;;;;6.88;1.30;;;;;;;12.75;64.67;97753.84;7400291;19;20706;-80
2023/11/03 09:17:37;;;;;;;4.00;0.95;;;;;;;12.74;63.96;97758.38;7394226;19;20360;-80
2023/11/03 09:20:07;;;;;;;5.53;1.33;;;;;;;12.77;63.89;97767.69;7398457;19;20388;-80
2023/11/03 09:22:34;;;;;;;5.85;1.35;;;;;;;12.79;63.78;97770.91;7398042;19;20375;-80
2023/11/03 09:25:04;;;;;;;6.30;1.30;;;;;;;12.73;63.19;97787.88;7399908;19;20368;-79
2023/11/03 09:27:33;;;;;;;3.30;0.90;;;;;;;12.78;63.36;97779.94;7398788;19;20421;-80
2023/11/03 09:30:04;;;;;;;6.72;1.08;;;;;;;12.93;63.79;97787.97;7397045;19;20349;-79
2023/11/03 09:32:32;;;;;;;5.57;1.30;;;;;;;13.17;63.58;97790.16;7399553;19;20377;-80
2023/11/03 09:34:59;;;;;;;5.70;1.40;;;;;;;13.37;63.41;97790.25;7397024;19;20387;-80
2023/11/03 09:37:26;;;;;;;6.32;2.00;;;;;;;13.56;61.96;97800.38;7395889;19;20907;-80
2023/11/03 09:39:54;;;;;;;6.35;1.63;;;;;;;13.74;61.17;97791.84;7397956;19;20344;-80
2023/11/03 09:42:23;;;;;;;4.18;1.27;;;;;;;13.66;59.80;97803.03;7407458;19;20424;-80
2023/11/03 09:44:50;;;;;;;5.68;1.17;;;;;;;13.69;59.93;97805.19;7410134;19;20370;-80
2023/11/03 09:47:17;;;;;;;5.95;1.40;;;;;;;13.79;60.52;97807.84;7406636;19;20356;-80
2023/11/03 09:49:45;;;;;;;4.85;1.40;;;;;;;13.91;60.55;97817.44;7393855;19;20408;-80
2023/11/03 09:52:13;;;;;;;6.95;1.30;;;;;;;13.99;59.69;97811.56;7396368;19;20372;-80
2023/11/03 09:54:41;;;;;;;6.60;1.50;;;;;;;13.91;59.76;97806.78;7398384;19;20358;-80
2023/11/03 09:57:10;;;;;;;3.47;1.20;;;;;;;13.98;60.28;97807.28;7394427;19;20368;-79
2023/11/03 09:59:40;;;;;;;5.07;1.10;;;;;;;14.06;60.19;97804.09;7395033;19;20975;-80
2023/11/03 10:02:19;;;;;;;6.38;1.30;;;;;;;14.11;60.40;97809.44;7396039;19;20952;-79
2023/11/03 10:04:46;;;;;;;6.43;1.58;;;;;;;13.99;59.41;97790.25;7395492;19;20364;-80
2023/11/03 10:07:13;;;;;;;4.03;1.23;;;;;;;13.96;60.19;97791.59;7394335;19;20707;-80
2023/11/03 10:09:44;;;;;;;4.82;1.40;;;;;;;13.86;60.37;97789.72;7396917;19;20356;-79
2023/11/03 10:12:20;;;;;;;8.15;1.83;;;;;;;13.78;60.31;97786.78;7392346;19;20389;-79
2023/11/03 10:14:47;;;;;;;4.75;1.40;;;;;;;13.79;59.75;97789.19;7387769;19;20415;-78
2023/11/03 10:17:14;;;;;;;6.50;1.67;;;;;;;13.76;60.24;97779.06;7395404;19;20417;-79
2023/11/03 10:19:41;;;;;;;5.28;1.15;;;;;;;13.88;61.41;97778.81;7395259;19;20352;-79
2023/11/03 10:22:08;;;;;;;6.32;1.15;;;;;;;13.83;60.93;97779.59;7395158;19;20761;-79
2023/11/03 10:24:37;;;;;;;8.57;1.77;;;;;;;13.87;61.48;97793.19;7394496;19;20372;-79
2023/11/03 10:27:05;;;;;;;5.40;1.30;;;;;;;13.78;60.09;97797.44;7390688;19;20368;-78
2023/11/03 10:29:33;;;;;;;6.45;1.30;;;;;;;13.77;61.15;97801.16;7394421;19;20362;-79
2023/11/03 10:31:59;;;;;;;4.35;1.10;;;;;;;13.77;60.60;97790.50;7391412;19;20349;-79
2023/11/03 10:34:28;;;;;;;5.88;1.48;;;;;;;13.62;60.80;97789.47;7392011;19;20374;-80
2023/11/03 10:36:57;;;;;;;6.80;2.20;;;;;;;13.48;61.62;97787.59;7393440;19;20462;-79
2023/11/03 10:39:28;;;;;;;6.20;1.42;;;;;;;13.35;62.22;97778.25;7394288;19;20364;-79
2023/11/03 10:42:02;;;;;;;10.25;2.00;;;;;;;13.18;62.51;97781.13;7396309;19;20357;-80
2023/11/03 10:44:31;;;;;;;12.07;2.38;;;;;;;13.02;62.80;97780.28;7395936;19;20364;-80
2023/11/03 10:47:05;;;;;;;9.80;2.05;;;;;;;12.87;63.19;97783.69;7394562;19;20372;-80
2023/11/03 10:49:35;;;;;;;5.88;1.50;;;;;;;12.82;63.38;97787.13;7394954;19;20432;-79
2023/11/03 10:52:28;;;;;;;5.38;1.50;;;;;;;12.71;63.55;97804.13;7394623;19;20368;-80
2023/11/03 10:55:17;;;;;;;9.23;1.67;;;;;;;12.80;63.82;97801.78;7392859;19;20349;-78
2023/11/03 10:57:44;;;;;;;7.10;1.52;;;;;;;12.91;62.97;97798.06;7395917;19;20345;-80
2023/11/03 11:00:21;;;;;;;5.37;1.13;;;;;;;12.92;63.20;97805.00;7394716;19;20741;-80
2023/11/03 11:03:15;;;;;;;4.90;1.20;;;;;;;13.00;63.25;97815.13;7397851;19;20340;-80
2023/11/03 11:06:03;;;;;;;7.50;1.60;;;;;;;13.14;63.31;97804.00;7396831;19;20389;-80
2023/11/03 11:08:32;;;;;;;6.65;2.13;;;;;;;13.17;62.65;97814.13;7397286;19;20349;-80
2023/11/03 11:11:01;;;;;;;6.10;1.60;;;;;;;13.28;63.01;97807.75;7396347;19;20711;-79
2023/11/03 11:13:28;;;;;;;5.88;1.40;;;;;;;13.34;62.07;97814.72;7397040;19;20360;-80
2023/11/03 11:15:55;;;;;;;5.43;1.30;;;;;;;13.43;62.75;97813.16;7392887;19;20731;-79
2023/11/03 11:18:24;;;;;;;6.60;1.38;;;;;;;13.51;62.54;97813.69;7396335;19;20734;-79
2023/11/03 11:20:53;;;;;;;7.35;2.05;;;;;;;13.58;62.16;97812.38;7394471;19;20368;-79
2023/11/03 11:23:30;;;;;;;5.63;1.50;;;;;;;13.65;62.21;97818.22;7396037;19;20377;-80
2023/11/03 11:25:57;;;;;;;5.90;1.45;;;;;;;13.66;62.35;97816.34;7398644;19;20352;-80
2023/11/03 11:28:40;;;;;;;9.95;2.03;;;;;;;13.57;61.72;97839.25;7400480;19;20364;-80
2023/11/03 11:31:25;;;;;;;6.63;1.63;;;;;;;13.44;62.01;97851.22;7403606;19;20878;-80
2023/11/03 11:34:07;;;;;;;7.32;1.58;;;;;;;13.40;62.43;97840.28;7405499;19;20363;-81
2023/11/03 11:36:39;;;;;;;6.13;1.20;;;;;;;13.36;62.25;97833.88;7405435;19;20340;-81
2023/11/03 11:39:06;;;;;;;5.85;1.55;;;;;;;13.30;62.57;97836.81;7404333;19;20368;-81
2023/11/03 11:41:35;;;;;;;5.80;1.30;;;;;;;13.26;64.06;97829.31;7401602;19;20865;-80